Time;durP1;ratioP1;P1;durP2;ratioP2;P2;SDS_P1;SDS_P2;PMS_P1;PMS_P2;Temp;Humidity;BMP_temperature;BMP_pressure;BME280_temperature;BME280_humidity;BME280_pressure;Samples;Min_cycle;Max_cycle;Signal;HPM_P1;HPM_P2
2022/06/21 00:01:22;;;;;;;2.42;1.05;;;;;;;11.04;74.58;97316.06;5076457;28;20047;-67
2022/06/21 00:03:50;;;;;;;1.67;1.02;;;;;;;11.10;74.60;97314.22;5088164;28;20044;-66
2022/06/21 00:06:23;;;;;;;2.22;0.98;;;;;;;11.14;74.34;97312.63;5088610;28;20153;-66
2022/06/21 00:08:50;;;;;;;3.45;1.45;;;;;;;10.87;75.64;97318.06;5080582;28;20044;-68
2022/06/21 00:11:24;;;;;;;2.85;1.17;;;;;;;10.78;76.41;97313.09;5068125;28;20048;-66
2022/06/21 00:13:51;;;;;;;2.22;1.20;;;;;;;10.92;75.75;97320.81;5068566;28;20045;-67
2022/06/21 00:16:18;;;;;;;2.88;1.10;;;;;;;10.86;76.06;97319.09;5068213;28;20090;-66
2022/06/21 00:18:46;;;;;;;2.67;1.20;;;;;;;10.63;76.92;97313.75;5068120;28;20559;-67
2022/06/21 00:21:18;;;;;;;1.85;1.23;;;;;;;10.44;77.88;97315.97;5067341;28;20041;-67
2022/06/21 00:23:47;;;;;;;3.13;1.30;;;;;;;10.53;78.18;97311.75;5068325;28;20055;-67
2022/06/21 00:26:15;;;;;;;1.67;0.98;;;;;;;10.57;77.79;97308.53;5064531;28;20041;-66
2022/06/21 00:28:42;;;;;;;2.78;1.17;;;;;;;10.50;78.66;97309.53;5066505;28;20090;-67
2022/06/21 00:31:36;;;;;;;2.60;1.10;;;;;;;10.50;78.47;97309.53;5067766;28;20454;-67
2022/06/21 00:34:13;;;;;;;1.88;1.08;;;;;;;10.48;78.81;97311.69;5066824;28;20135;-68
2022/06/21 00:36:40;;;;;;;2.15;1.30;;;;;;;10.61;77.70;97312.38;5048432;28;20041;-66
2022/06/21 00:39:11;;;;;;;3.72;1.30;;;;;;;10.85;77.24;97318.31;5064178;28;20090;-67
2022/06/21 00:41:47;;;;;;;2.17;1.20;;;;;;;10.79;77.38;97312.03;5068278;28;20553;-66
2022/06/21 00:44:20;;;;;;;2.88;1.58;;;;;;;10.67;78.11;97305.94;5047592;28;20036;-66
2022/06/21 00:47:09;;;;;;;2.90;1.00;;;;;;;10.54;78.47;97299.81;5047541;28;20508;-66
2022/06/21 00:50:03;;;;;;;3.13;1.30;;;;;;;10.40;79.11;97304.78;5065620;28;20080;-66
2022/06/21 00:52:41;;;;;;;3.60;1.63;;;;;;;10.31;80.34;97305.50;5066522;28;20566;-66
2022/06/21 00:55:16;;;;;;;2.60;1.27;;;;;;;10.41;79.83;97300.19;5067858;28;20061;-66
2022/06/21 00:57:50;;;;;;;3.17;1.33;;;;;;;10.23;80.79;97298.63;5066692;28;20044;-67
2022/06/21 01:00:30;;;;;;;2.90;1.50;;;;;;;10.25;80.85;97297.28;5055262;28;20730;-67
2022/06/21 01:03:02;;;;;;;3.17;1.30;;;;;;;10.30;80.55;97287.59;5047160;28;20553;-66
2022/06/21 01:05:33;;;;;;;2.87;1.30;;;;;;;10.15;82.01;97284.44;5050359;28;20040;-67
2022/06/21 01:08:00;;;;;;;2.13;1.25;;;;;;;10.13;82.02;97286.59;5067280;28;20761;-66
2022/06/21 01:10:28;;;;;;;2.53;1.23;;;;;;;9.90;82.69;97293.06;5067243;28;20048;-66
2022/06/21 01:12:58;;;;;;;2.72;1.50;;;;;;;10.13;82.00;97288.47;5067773;28;20446;-66
2022/06/21 01:15:35;;;;;;;4.68;1.50;;;;;;;10.24;81.72;97286.72;5066926;28;20722;-66
2022/06/21 01:18:04;;;;;;;2.20;1.20;;;;;;;10.25;81.67;97288.38;5067178;28;20051;-66
2022/06/21 01:20:33;;;;;;;2.50;1.42;;;;;;;10.18;82.42;97287.72;5066111;28;20093;-67
2022/06/21 01:23:24;;;;;;;3.17;1.50;;;;;;;10.39;81.75;97281.50;5067393;28;20604;-66
2022/06/21 01:26:16;;;;;;;3.03;1.50;;;;;;;10.60;80.73;97280.94;5066517;28;20045;-66
2022/06/21 01:28:44;;;;;;;2.50;1.30;;;;;;;10.77;80.05;97273.53;5075218;28;20040;-67
2022/06/21 01:31:11;;;;;;;2.40;1.23;;;;;;;10.72;80.37;97262.66;5078486;28;20098;-66
2022/06/21 01:33:40;;;;;;;2.22;1.20;;;;;;;10.83;81.42;97251.94;5066855;28;20036;-66
2022/06/21 01:36:13;;;;;;;3.65;1.35;;;;;;;11.05;79.75;97249.94;5066552;28;20794;-66
2022/06/21 01:38:51;;;;;;;3.20;1.20;;;;;;;10.93;79.95;97246.59;5065649;28;20070;-66
2022/06/21 01:41:23;;;;;;;2.33;1.40;;;;;;;10.90;80.74;97242.50;5064083;28;20052;-66
2022/06/21 01:43:51;;;;;;;;;;;;;;;10.84;81.40;97235.41;5047433;28;20051;-67
2022/06/21 01:46:23;;;;;;;3.92;1.60;;;;;;;11.02;80.85;97222.56;5048889;28;19928;-66
2022/06/21 01:48:53;;;;;;;1.92;1.13;;;;;;;11.25;79.95;97223.28;5065910;28;20037;-66
2022/06/21 01:51:25;;;;;;;2.88;1.20;;;;;;;11.26;79.55;97217.59;5067133;28;20098;-66
2022/06/21 01:53:52;;;;;;;;;;;;;;;11.31;80.52;97214.09;5067030;28;20045;-66
2022/06/21 01:56:23;;;;;;;1.92;1.13;;;;;;;11.41;80.53;97216.88;5066322;28;19927;-67
2022/06/21 01:59:38;;;;;;;2.05;1.17;;;;;;;11.37;80.01;97218.47;5066686;28;20044;-66
2022/06/21 02:02:09;;;;;;;1.92;1.30;;;;;;;11.35;81.31;97225.25;5069357;28;20050;-66
2022/06/21 02:04:43;;;;;;;2.22;1.27;;;;;;;11.53;80.84;97215.84;5071040;28;20102;-66
2022/06/21 02:07:17;;;;;;;3.03;1.45;;;;;;;11.79;78.69;97222.25;5070594;28;20048;-66
2022/06/21 02:10:03;;;;;;;3.03;1.40;;;;;;;12.09;76.64;97217.25;5070659;28;20041;-67
2022/06/21 02:12:31;;;;;;;2.83;1.42;;;;;;;12.06;76.74;97212.34;5070814;28;20044;-67
2022/06/21 02:15:01;;;;;;;3.03;1.42;;;;;;;12.06;77.31;97207.72;5070783;28;20504;-67
2022/06/21 02:17:32;;;;;;;2.10;1.42;;;;;;;11.75;78.81;97207.56;5069836;28;20036;-67
2022/06/21 02:20:37;;;;;;;3.20;1.60;;;;;;;11.53;80.08;97197.69;5070261;28;20052;-66
2022/06/21 02:23:05;;;;;;;2.53;1.20;;;;;;;11.39;81.05;97210.09;5068995;28;20286;-67
2022/06/21 02:25:33;;;;;;;2.40;1.45;;;;;;;11.15;82.06;97205.88;5069516;28;20052;-66
2022/06/21 02:28:05;;;;;;;2.28;1.45;;;;;;;10.97;82.53;97212.50;5069997;28;20492;-66
2022/06/21 02:30:32;;;;;;;3.97;1.33;;;;;;;10.96;82.71;97210.88;5070580;28;20130;-66
2022/06/21 02:33:01;;;;;;;5.03;1.50;;;;;;;10.95;82.89;97205.72;5070518;28;20078;-67
2022/06/21 02:35:36;;;;;;;2.35;1.50;;;;;;;10.92;83.38;97205.13;5069936;28;20090;-68
2022/06/21 02:38:08;;;;;;;3.42;1.48;;;;;;;10.82;83.88;97204.22;5069906;28;20045;-66
2022/06/21 02:40:41;;;;;;;2.78;1.63;;;;;;;10.86;83.52;97198.06;5070366;28;20047;-66
2022/06/21 02:43:16;;;;;;;4.82;1.40;;;;;;;10.70;83.58;97199.00;5069782;28;20110;-66
2022/06/21 02:46:08;;;;;;;2.97;1.75;;;;;;;10.46;85.41;97200.13;5069703;28;20090;-66
2022/06/21 02:48:44;;;;;;;2.45;1.70;;;;;;;10.43;85.49;97197.09;5070251;28;20128;-67
2022/06/21 02:51:17;;;;;;;2.30;1.33;;;;;;;10.46;85.06;97208.25;5069713;28;20087;-66
2022/06/21 02:54:00;;;;;;;2.40;1.38;;;;;;;10.30;85.94;97209.13;5069777;28;20504;-67
2022/06/21 02:56:33;;;;;;;2.08;1.40;;;;;;;10.39;85.43;97203.00;5069955;28;20102;-66
2022/06/21 02:59:01;;;;;;;4.55;1.83;;;;;;;10.56;84.55;97210.25;5069202;28;20090;-66
2022/06/21 03:01:35;;;;;;;2.92;1.65;;;;;;;10.73;83.68;97198.47;5069485;28;20044;-66
2022/06/21 03:04:05;;;;;;;3.85;1.42;;;;;;;10.77;83.86;97199.59;5069699;28;20048;-67
2022/06/21 03:06:33;;;;;;;2.15;1.30;;;;;;;10.76;83.27;97177.09;5069663;28;20466;-67
2022/06/21 03:09:11;;;;;;;2.72;1.67;;;;;;;10.46;84.65;97178.47;5065705;28;20055;-66
2022/06/21 03:11:42;;;;;;;3.60;1.77;;;;;;;10.25;86.16;97185.53;5066839;28;20048;-66
2022/06/21 03:14:14;;;;;;;4.43;1.58;;;;;;;10.31;85.83;97181.81;5066872;28;20052;-66
2022/06/21 03:16:42;;;;;;;2.95;1.60;;;;;;;10.23;86.11;97187.66;5065846;28;20186;-67
2022/06/21 03:19:24;;;;;;;3.58;1.73;;;;;;;10.13;87.15;97193.78;5067342;28;20055;-66
2022/06/21 03:21:51;;;;;;;3.75;1.70;;;;;;;10.10;87.07;97188.91;5067191;28;20073;-67
2022/06/21 03:24:20;;;;;;;3.05;1.90;;;;;;;10.17;86.38;97181.38;5067237;28;20048;-66
2022/06/21 03:27:03;;;;;;;3.67;1.55;;;;;;;10.36;85.78;97176.44;5065938;28;20040;-66
2022/06/21 03:29:30;;;;;;;5.55;1.77;;;;;;;10.33;85.81;97179.69;5067101;28;20055;-67
2022/06/21 03:31:59;;;;;;;2.83;1.42;;;;;;;10.54;85.49;97177.19;5066922;28;20055;-66
2022/06/21 03:34:26;;;;;;;3.72;1.75;;;;;;;10.52;84.94;97172.03;5067483;28;20094;-67
2022/06/21 03:36:53;;;;;;;3.45;1.50;;;;;;;10.39;85.55;97172.41;5066525;28;20072;-66
2022/06/21 03:41:42;;;;;;;3.30;1.45;;;;;;;10.55;84.89;97176.13;5069186;28;20037;-66
2022/06/21 03:42:10;;;;;;;4.15;1.42;;;;;;;10.46;85.04;97183.88;5069301;28;20048;-66
2022/06/21 03:44:43;;;;;;;2.88;1.67;;;;;;;10.43;86.47;97184.34;5068541;28;20048;-65
2022/06/21 03:47:16;;;;;;;3.42;1.50;;;;;;;10.69;84.90;97179.22;5069276;28;20090;-67
2022/06/21 03:49:49;;;;;;;3.33;1.52;;;;;;;11.07;83.58;97179.25;5068305;28;20477;-66
2022/06/21 03:52:44;;;;;;;2.85;1.85;;;;;;;11.06;83.49;97172.22;5068883;28;20047;-66
2022/06/21 03:55:37;;;;;;;3.15;1.73;;;;;;;11.32;81.69;97151.50;5068300;28;20056;-67
2022/06/21 03:58:32;;;;;;;2.33;1.38;;;;;;;11.42;81.53;97149.91;5068775;28;20044;-67
2022/06/21 04:01:10;;;;;;;3.58;1.60;;;;;;;11.25;82.37;97150.94;5067625;28;20060;-66
2022/06/21 04:03:43;;;;;;;2.63;1.48;;;;;;;11.17;83.20;97154.94;5068939;28;20048;-66
2022/06/21 04:06:22;;;;;;;3.83;1.90;;;;;;;11.31;83.49;97158.00;5068802;28;20043;-66
2022/06/21 04:09:13;;;;;;;3.83;1.83;;;;;;;11.63;81.17;97139.16;5068385;28;20042;-67
2022/06/21 04:12:02;;;;;;;1.67;1.10;;;;;;;11.64;80.08;97146.25;5068425;28;20095;-66
2022/06/21 04:15:03;;;;;;;5.25;1.67;;;;;;;11.56;82.11;97148.38;5068291;28;20282;-66
2022/06/21 04:17:40;;;;;;;3.35;1.70;;;;;;;11.73;82.02;97163.63;5067718;28;20056;-66
2022/06/21 04:20:17;;;;;;;3.22;1.73;;;;;;;11.83;80.04;97165.56;5068134;28;20048;-66
2022/06/21 04:22:58;;;;;;;5.10;1.98;;;;;;;11.99;77.92;97173.75;5068273;28;20036;-66
2022/06/21 04:25:40;;;;;;;3.03;1.70;;;;;;;12.39;74.66;97161.44;5067463;28;20045;-67
2022/06/21 04:28:07;;;;;;;;;;;;;;;12.70;72.64;97164.16;5068757;28;20089;-66
2022/06/21 04:30:58;;;;;;;3.45;1.40;;;;;;;12.98;71.61;97156.53;5067439;28;19920;-67
2022/06/21 04:33:30;;;;;;;6.63;1.63;;;;;;;13.19;70.88;97147.56;5068154;28;20048;-67
2022/06/21 04:36:05;;;;;;;3.28;1.38;;;;;;;13.35;69.22;97142.91;5067931;28;20040;-66
2022/06/21 04:38:47;;;;;;;3.40;1.83;;;;;;;13.46;68.78;97143.69;5067712;28;20098;-67
2022/06/21 04:42:02;;;;;;;2.92;1.63;;;;;;;13.44;68.71;97157.56;5068042;28;20124;-66
2022/06/21 04:45:11;;;;;;;3.17;1.35;;;;;;;13.61;67.14;97151.84;5064882;28;20048;-66
2022/06/21 04:47:44;;;;;;;3.63;1.80;;;;;;;13.74;65.84;97149.59;5066918;28;20530;-67
2022/06/21 04:50:17;;;;;;;3.47;1.67;;;;;;;13.84;66.00;97140.59;5067433;28;20058;-67
2022/06/21 04:52:51;;;;;;;4.80;1.70;;;;;;;13.83;66.28;97142.50;5067600;28;20488;-66
2022/06/21 04:55:20;;;;;;;4.22;1.63;;;;;;;13.88;66.69;97147.09;5067314;28;20453;-66
2022/06/21 04:57:47;;;;;;;3.60;1.70;;;;;;;13.87;66.79;97140.88;5066701;28;20499;-67
2022/06/21 05:00:18;;;;;;;3.40;1.42;;;;;;;13.89;65.73;97140.56;5064175;28;20485;-67
2022/06/21 05:03:26;;;;;;;3.42;1.50;;;;;;;14.02;65.09;97141.88;5065122;28;20040;-67
2022/06/21 05:05:52;;;;;;;4.88;1.63;;;;;;;13.98;68.25;97143.53;5063503;28;20056;-67
2022/06/21 05:08:22;;;;;;;3.08;1.98;;;;;;;14.16;65.13;97151.03;5064362;28;20054;-67
2022/06/21 05:10:54;;;;;;;5.45;1.60;;;;;;;14.29;64.05;97144.16;5065478;28;20037;-67
2022/06/21 05:13:27;;;;;;;5.53;1.60;;;;;;;14.29;63.95;97146.91;5064881;28;20127;-66
2022/06/21 05:15:57;;;;;;;2.45;1.45;;;;;;;14.40;64.08;97152.25;5064821;28;20053;-66
2022/06/21 05:18:36;;;;;;;2.92;1.35;;;;;;;14.13;63.70;97148.06;5064910;28;20040;-67
2022/06/21 05:21:10;;;;;;;3.67;1.60;;;;;;;14.36;63.98;97145.75;5065284;28;20441;-66
2022/06/21 05:23:37;;;;;;;3.42;1.40;;;;;;;14.48;62.12;97137.25;5064862;28;20075;-66
2022/06/21 05:26:12;;;;;;;3.70;1.95;;;;;;;14.77;62.36;97136.50;5064275;28;20044;-66
2022/06/21 05:28:53;;;;;;;5.90;2.00;;;;;;;15.00;61.62;97134.13;5064795;28;20382;-66
2022/06/21 05:31:23;;;;;;;;;;;;;;;15.14;60.76;97132.34;5065437;28;20204;-66
2022/06/21 05:33:54;;;;;;;4.15;1.60;;;;;;;15.24;60.62;97136.06;5065003;28;20328;-66
2022/06/21 05:36:28;;;;;;;5.13;1.50;;;;;;;15.34;59.70;97133.25;5063868;28;20055;-67
2022/06/21 05:38:59;;;;;;;5.38;1.33;;;;;;;15.41;59.44;97138.38;5064277;28;20045;-66
2022/06/21 05:41:35;;;;;;;4.77;1.83;;;;;;;15.48;59.57;97141.53;5064688;28;20055;-66
2022/06/21 05:44:14;;;;;;;5.57;1.40;;;;;;;15.62;59.09;97147.13;5065026;28;20049;-67
2022/06/21 05:46:46;;;;;;;3.20;1.48;;;;;;;15.64;59.37;97153.13;5051839;28;20067;-66
2022/06/21 05:49:25;;;;;;;4.57;2.13;;;;;;;15.79;58.63;97140.38;5064558;28;20082;-67
2022/06/21 05:51:55;;;;;;;3.60;1.88;;;;;;;15.60;59.23;97152.06;5051049;28;20044;-66
2022/06/21 05:54:28;;;;;;;5.20;1.80;;;;;;;15.56;59.45;97168.19;5064848;28;20526;-66
2022/06/21 05:56:55;;;;;;;6.22;1.80;;;;;;;15.42;59.36;97170.81;5064504;28;20040;-67
2022/06/21 05:59:23;;;;;;;3.60;1.40;;;;;;;15.54;59.39;97159.50;5064117;28;20040;-66
2022/06/21 06:01:59;;;;;;;5.53;1.65;;;;;;;15.81;59.27;97163.56;5063446;28;20457;-67
2022/06/21 06:04:31;;;;;;;3.63;1.50;;;;;;;15.67;59.06;97166.16;5064499;28;20053;-66
2022/06/21 06:06:59;;;;;;;4.45;1.48;;;;;;;15.77;59.33;97180.81;5064305;28;20048;-66
2022/06/21 06:09:33;;;;;;;4.80;1.50;;;;;;;15.63;61.62;97165.16;5064250;28;20500;-66
2022/06/21 06:12:11;;;;;;;2.85;1.15;;;;;;;15.82;59.39;97162.44;5064664;28;20415;-66
2022/06/21 06:14:44;;;;;;;3.13;1.48;;;;;;;15.82;59.43;97167.91;5051761;28;20044;-67
2022/06/21 06:17:37;;;;;;;3.92;1.88;;;;;;;15.97;58.58;97158.78;5064481;28;20049;-66
2022/06/21 06:20:07;;;;;;;2.80;1.58;;;;;;;16.12;58.56;97160.50;5062479;28;20060;-67
2022/06/21 06:22:46;;;;;;;3.85;1.70;;;;;;;16.11;58.53;97166.25;5063865;28;20056;-67
2022/06/21 06:25:22;;;;;;;5.03;1.20;;;;;;;16.21;58.00;97168.00;5064264;28;20400;-66
2022/06/21 06:28:25;;;;;;;7.18;2.00;;;;;;;16.44;59.00;97166.31;5063757;28;20047;-66
2022/06/21 06:31:15;;;;;;;3.17;1.50;;;;;;;16.50;57.97;97162.41;5063266;28;20076;-66
2022/06/21 06:33:46;;;;;;;3.90;1.80;;;;;;;16.57;58.09;97167.50;5063630;28;20052;-66
2022/06/21 06:36:20;;;;;;;5.88;1.85;;;;;;;16.60;57.97;97163.38;5063636;28;20049;-66
2022/06/21 06:38:46;;;;;;;4.25;1.60;;;;;;;16.74;57.84;97161.50;5063246;28;20419;-67
2022/06/21 06:41:48;;;;;;;4.53;1.73;;;;;;;16.76;58.67;97158.47;5064455;28;20040;-68
2022/06/21 06:44:17;;;;;;;3.42;1.38;;;;;;;17.06;57.74;97156.34;5063832;28;20059;-67
2022/06/21 06:46:47;;;;;;;7.65;1.90;;;;;;;16.99;59.38;97153.97;5065085;28;20040;-67
2022/06/21 06:49:22;;;;;;;2.53;1.50;;;;;;;17.14;58.48;97149.41;5066959;28;20037;-68
2022/06/21 06:52:05;;;;;;;3.83;1.80;;;;;;;17.24;57.14;97138.28;5067422;28;20052;-67
2022/06/21 06:54:46;;;;;;;3.97;1.80;;;;;;;17.19;58.02;97146.56;5067780;28;20044;-68
2022/06/21 06:57:24;;;;;;;;;;;;;;;17.31;58.42;97150.75;5059134;28;20349;-65
2022/06/21 06:59:51;;;;;;;4.35;2.33;;;;;;;17.42;58.25;97163.94;5068246;28;19920;-67
2022/06/21 07:02:24;;;;;;;6.53;1.98;;;;;;;17.52;58.41;97162.13;5064662;28;20045;-68
2022/06/21 07:05:02;;;;;;;3.88;1.65;;;;;;;17.85;56.69;97169.44;5053928;28;20133;-64
2022/06/21 07:07:53;;;;;;;4.38;1.65;;;;;;;18.09;55.39;97169.22;5066858;28;20044;-65
2022/06/21 07:10:23;;;;;;;4.35;2.13;;;;;;;18.29;55.16;97159.78;5063327;28;20072;-65
2022/06/21 07:12:52;;;;;;;3.67;2.00;;;;;;;18.47;55.58;97165.41;5066798;28;20559;-65
2022/06/21 07:15:25;;;;;;;3.03;1.75;;;;;;;18.51;56.95;97165.59;5067773;28;20040;-64
2022/06/21 07:17:54;;;;;;;6.95;2.03;;;;;;;18.44;57.49;97180.56;5067349;28;20423;-64
2022/06/21 07:20:24;;;;;;;4.40;2.20;;;;;;;18.29;58.63;97187.19;5067171;28;20090;-65
2022/06/21 07:22:55;;;;;;;3.80;2.20;;;;;;;17.99;60.28;97192.13;5067625;28;20076;-65
2022/06/21 07:25:40;;;;;;;3.55;2.22;;;;;;;18.46;58.97;97188.44;5066930;28;20649;-65
2022/06/21 07:28:11;;;;;;;4.90;2.40;;;;;;;18.58;58.46;97175.00;5066832;28;20049;-66
2022/06/21 07:30:42;;;;;;;6.05;2.40;;;;;;;18.77;57.86;97165.81;5067189;28;20044;-66
2022/06/21 07:33:18;;;;;;;3.10;1.85;;;;;;;18.76;57.92;97163.38;5068793;28;20044;-65
2022/06/21 07:35:49;;;;;;;5.50;2.65;;;;;;;19.10;57.46;97164.78;5064194;28;20052;-65
2022/06/21 07:38:25;;;;;;;5.20;2.20;;;;;;;19.01;57.59;97153.72;5068896;28;20629;-65
2022/06/21 07:41:29;;;;;;;7.13;2.00;;;;;;;18.91;56.88;97153.97;5066988;28;20296;-65
2022/06/21 07:44:01;;;;;;;5.85;2.35;;;;;;;18.74;56.48;97141.75;5059979;28;20562;-68
2022/06/21 07:46:45;;;;;;;6.75;2.05;;;;;;;18.81;56.37;97117.47;5066645;28;20052;-65
2022/06/21 07:49:27;;;;;;;4.45;2.15;;;;;;;18.80;54.15;97110.31;5066774;28;20056;-65
2022/06/21 07:52:04;;;;;;;5.07;1.73;;;;;;;18.93;54.21;97113.31;5053312;28;20086;-65
2022/06/21 07:54:37;;;;;;;6.18;1.75;;;;;;;18.99;52.63;97092.88;5066979;28;20101;-65
2022/06/21 07:57:14;;;;;;;4.45;1.80;;;;;;;18.84;52.99;97105.03;5054533;28;20060;-64
2022/06/21 07:59:45;;;;;;;4.20;1.70;;;;;;;18.94;52.08;97099.28;5066769;28;20053;-65
2022/06/21 08:07:58;;;;;;;5.40;1.60;;;;;;;19.39;50.73;97094.88;5066601;28;20349;-65
2022/06/21 08:10:44;;;;;;;3.58;2.10;;;;;;;19.31;49.39;97090.16;5065141;28;20044;-65
2022/06/21 08:13:11;;;;;;;7.28;2.05;;;;;;;19.76;48.29;97089.97;5066467;28;20404;-65
2022/06/21 08:15:50;;;;;;;5.53;1.50;;;;;;;20.23;47.47;97096.84;5065751;28;20040;-65
2022/06/21 08:18:27;;;;;;;4.28;1.38;;;;;;;20.42;46.32;97108.66;5066914;28;20404;-65
2022/06/21 08:21:03;;;;;;;5.80;1.50;;;;;;;20.49;46.29;97125.50;5065043;28;20044;-65
2022/06/21 08:23:38;;;;;;;3.47;1.50;;;;;;;20.55;46.18;97118.69;5066160;28;20454;-66
2022/06/21 08:26:26;;;;;;;4.38;1.65;;;;;;;20.83;45.50;97107.34;5057757;28;20045;-66
2022/06/21 08:29:01;;;;;;;3.70;1.45;;;;;;;20.91;45.13;97128.56;5066178;28;20044;-66
2022/06/21 08:31:32;;;;;;;4.85;1.67;;;;;;;21.01;44.89;97126.59;5065440;28;20060;-66
2022/06/21 08:34:18;;;;;;;3.90;1.52;;;;;;;20.76;46.29;97126.28;5065893;28;20052;-66
2022/06/21 08:37:06;;;;;;;5.80;1.67;;;;;;;21.04;44.99;97136.94;5065373;28;20079;-66
2022/06/21 08:39:59;;;;;;;13.95;1.95;;;;;;;21.06;44.49;97134.69;5065128;28;20048;-65
2022/06/21 08:43:08;;;;;;;3.67;1.40;;;;;;;21.06;44.41;97140.19;5064101;28;20428;-65
2022/06/21 08:45:42;;;;;;;5.97;1.60;;;;;;;21.06;44.68;97129.19;5053193;28;20051;-66
2022/06/21 08:48:40;;;;;;;4.10;2.15;;;;;;;21.02;44.93;97114.47;5065388;28;20037;-65
2022/06/21 08:51:25;;;;;;;3.03;1.60;;;;;;;20.87;44.21;97104.75;5065878;28;20097;-66
2022/06/21 08:54:25;;;;;;;4.70;1.75;;;;;;;20.95;45.23;97097.63;5065469;28;20340;-66
2022/06/21 08:56:52;;;;;;;3.85;1.80;;;;;;;21.21;45.13;97088.50;5065181;28;20094;-68
2022/06/21 08:59:47;;;;;;;4.25;1.50;;;;;;;21.29;44.63;97098.66;5060788;28;20036;-66
2022/06/21 09:02:43;;;;;;;4.53;1.60;;;;;;;21.25;44.72;97111.47;5062712;28;20059;-66
2022/06/21 09:05:29;;;;;;;4.78;1.77;;;;;;;21.26;44.17;97110.34;5063167;28;20055;-67
2022/06/21 09:08:15;;;;;;;5.50;1.80;;;;;;;21.39;43.43;97109.34;5062326;28;20067;-65
2022/06/21 09:10:56;;;;;;;4.10;1.90;;;;;;;21.22;43.68;97107.44;5064615;28;20195;-65
2022/06/21 09:13:47;;;;;;;5.13;1.75;;;;;;;20.92;44.96;97104.59;5065525;28;20407;-65
2022/06/21 09:16:45;;;;;;;4.05;1.52;;;;;;;20.35;45.45;97109.16;5053880;28;20048;-66
2022/06/21 09:19:49;;;;;;;4.10;1.60;;;;;;;20.65;45.01;97112.06;5047077;28;20120;-65
2022/06/21 09:22:28;;;;;;;6.45;1.55;;;;;;;21.03;44.70;97105.88;5046773;28;20056;-66
2022/06/21 09:25:01;;;;;;;4.43;1.60;;;;;;;21.23;44.75;97103.53;5047280;28;20087;-66
2022/06/21 09:27:35;;;;;;;5.53;1.60;;;;;;;21.47;44.49;97104.09;5046385;28;20045;-66
2022/06/21 09:30:09;;;;;;;4.28;1.90;;;;;;;21.68;44.24;97112.44;5046907;28;20041;-66
2022/06/21 09:32:52;;;;;;;5.00;1.80;;;;;;;21.68;43.59;97107.72;5087627;28;20044;-66
2022/06/21 09:35:49;;;;;;;7.28;1.80;;;;;;;21.57;44.40;97109.25;5087391;28;20105;-66
2022/06/21 09:38:26;;;;;;;4.03;1.73;;;;;;;21.55;43.95;97112.34;5083372;28;20043;-67
2022/06/21 09:41:06;;;;;;;4.70;1.98;;;;;;;21.70;43.84;97099.13;5066595;28;20123;-67
2022/06/21 09:44:04;;;;;;;4.45;1.90;;;;;;;21.59;43.83;97093.19;5067249;28;20041;-66
2022/06/21 09:47:04;;;;;;;5.90;2.00;;;;;;;21.55;44.69;97092.25;5066263;28;20125;-68
2022/06/21 09:49:48;;;;;;;4.35;1.92;;;;;;;21.74;44.28;97082.78;5066711;28;20036;-67
2022/06/21 09:52:48;;;;;;;4.25;1.73;;;;;;;21.87;44.30;97087.25;5066379;28;20052;-67
2022/06/21 09:55:22;;;;;;;4.38;1.83;;;;;;;21.75;43.80;97087.16;5066888;28;20054;-67
2022/06/21 09:58:11;;;;;;;4.68;1.80;;;;;;;22.18;44.39;97079.72;5065855;28;20052;-65
2022/06/21 10:00:44;;;;;;;5.38;2.10;;;;;;;22.20;43.36;97064.47;5065219;28;20053;-65
2022/06/21 10:03:29;;;;;;;7.75;2.15;;;;;;;21.77;43.93;97065.56;5064981;28;20215;-66
2022/06/21 10:06:21;;;;;;;4.32;1.95;;;;;;;22.43;43.56;97068.81;5064055;28;20040;-66
2022/06/21 10:09:23;;;;;;;5.65;1.80;;;;;;;22.42;43.63;97058.94;5064292;28;20051;-65
2022/06/21 10:11:57;;;;;;;;;;;;;;;22.69;42.93;97060.34;5063563;28;20420;-65
2022/06/21 10:14:30;;;;;;;6.25;2.03;;;;;;;22.73;43.58;97061.28;5064436;28;19977;-65
2022/06/21 10:17:14;;;;;;;4.15;1.90;;;;;;;22.68;43.42;97053.22;5063495;28;20135;-66
2022/06/21 10:20:20;;;;;;;4.30;2.22;;;;;;;22.96;42.75;97051.81;5066833;28;20044;-65
2022/06/21 10:23:19;;;;;;;3.90;1.90;;;;;;;22.44;44.29;97046.41;5065504;28;20059;-66
2022/06/21 10:26:13;;;;;;;4.10;1.95;;;;;;;22.60;44.50;97034.78;5067611;28;20561;-66
2022/06/21 10:29:04;;;;;;;4.65;2.00;;;;;;;22.99;43.62;97032.59;5069869;28;20060;-67
2022/06/21 10:32:08;;;;;;;3.33;1.73;;;;;;;23.14;43.43;97033.06;5083250;28;20070;-66
2022/06/21 10:34:56;;;;;;;6.22;2.15;;;;;;;23.17;42.79;97037.91;5090500;28;20047;-66
2022/06/21 10:37:49;;;;;;;6.78;2.28;;;;;;;23.25;43.50;97022.34;5090540;28;20445;-66
2022/06/21 10:40:28;;;;;;;4.97;2.00;;;;;;;23.19;43.74;97021.81;5068839;28;20032;-66
2022/06/21 10:43:32;;;;;;;3.90;1.85;;;;;;;23.12;44.07;97018.81;5070081;28;20045;-66
2022/06/21 10:46:21;;;;;;;5.93;1.90;;;;;;;23.20;43.61;97014.31;5069671;28;20040;-65
2022/06/21 10:49:14;;;;;;;6.82;2.70;;;;;;;22.80;44.46;97016.56;5070090;28;20566;-66
2022/06/21 10:52:16;;;;;;;5.22;2.20;;;;;;;22.99;44.61;97013.25;5069569;28;20036;-65
2022/06/21 10:55:01;;;;;;;;;;;;;;;22.79;44.77;97014.97;5070608;28;20084;-66
2022/06/21 10:57:49;;;;;;;6.85;2.30;;;;;;;23.01;44.78;97010.16;5066105;28;19924;-66
2022/06/21 11:03:45;;;;;;;3.70;2.05;;;;;;;23.11;44.42;97012.47;5062942;28;20060;-65
2022/06/21 11:06:52;;;;;;;4.82;2.50;;;;;;;23.26;43.87;97013.72;5067428;28;20078;-66
2022/06/21 11:09:48;;;;;;;5.57;2.50;;;;;;;23.25;44.11;97003.84;5067356;28;20101;-66
2022/06/21 11:15:54;;;;;;;5.25;2.53;;;;;;;23.66;44.02;97002.34;5067724;28;20572;-66
2022/06/21 11:18:28;;;;;;;7.68;2.30;;;;;;;23.88;43.37;97004.59;5064690;28;20383;-65
2022/06/21 11:21:40;;;;;;;3.92;2.00;;;;;;;24.26;41.78;97002.56;5070323;28;20110;-66
2022/06/21 11:24:18;;;;;;;3.67;2.13;;;;;;;23.95;42.57;96992.16;5071347;28;20543;-66
2022/06/21 11:26:55;;;;;;;4.85;2.55;;;;;;;24.21;42.33;96986.19;5068985;28;20051;-66
2022/06/21 11:29:37;;;;;;;4.53;2.13;;;;;;;24.46;43.19;96996.38;5067088;28;20444;-66
2022/06/21 11:32:25;;;;;;;6.30;2.17;;;;;;;25.07;41.39;96986.91;5070956;28;20423;-66
2022/06/21 11:35:18;;;;;;;4.95;2.58;;;;;;;25.37;40.77;96977.31;5067454;28;20051;-66
2022/06/21 11:38:35;;;;;;;5.05;2.40;;;;;;;25.88;38.97;96975.69;5066675;28;20076;-65
2022/06/21 11:44:49;;;;;;;6.28;2.17;;;;;;;25.26;40.13;96965.19;5064616;28;20534;-65
2022/06/21 11:47:22;;;;;;;;;;;;;;;25.09;40.79;96956.06;5065714;28;20354;-66
2022/06/21 11:50:03;;;;;;;6.45;2.33;;;;;;;25.11;40.94;96962.06;5069744;28;19924;-66
2022/06/21 11:53:04;;;;;;;4.78;2.15;;;;;;;25.54;40.10;96951.16;5071904;28;20051;-65
2022/06/21 11:56:03;;;;;;;5.07;2.30;;;;;;;25.53;39.80;96944.03;5066547;28;20450;-65
2022/06/21 11:58:36;;;;;;;6.32;2.20;;;;;;;26.02;38.86;96955.75;5055397;28;20102;-66
2022/06/21 12:01:17;;;;;;;6.85;2.25;;;;;;;26.55;38.26;96964.72;5069758;28;20059;-65
2022/06/21 12:03:46;;;;;;;7.47;2.33;;;;;;;26.55;38.31;96965.53;5066472;28;20799;-66
2022/06/21 12:06:15;;;;;;;4.07;2.25;;;;;;;26.34;38.42;96968.69;5066477;28;20040;-66
2022/06/21 12:09:09;;;;;;;3.35;2.20;;;;;;;26.33;38.17;96965.13;5066244;28;20550;-66
2022/06/21 12:11:59;;;;;;;4.57;2.20;;;;;;;26.02;38.72;96960.53;5066087;28;20074;-66
2022/06/21 12:14:49;;;;;;;5.70;2.30;;;;;;;26.00;39.64;96952.56;5054334;28;20044;-66
2022/06/21 12:17:38;;;;;;;6.35;2.20;;;;;;;26.35;38.93;96950.91;5064136;28;20064;-66
2022/06/21 12:20:14;;;;;;;4.75;2.40;;;;;;;26.37;39.61;96943.00;5066573;28;20051;-66
2022/06/21 12:22:45;;;;;;;5.93;2.47;;;;;;;26.16;39.18;96938.59;5066399;28;20040;-66
2022/06/21 12:25:16;;;;;;;5.45;2.35;;;;;;;25.56;40.15;96926.72;5066292;28;20056;-66
2022/06/21 12:27:42;;;;;;;5.80;2.60;;;;;;;25.41;40.24;96913.66;5065910;28;20059;-66
2022/06/21 12:30:23;;;;;;;5.05;2.10;;;;;;;25.76;40.46;96923.16;5067458;28;20419;-67
2022/06/21 12:33:01;;;;;;;7.00;2.63;;;;;;;26.15;39.33;96933.41;5073175;28;20136;-67
2022/06/21 12:35:43;;;;;;;6.35;2.38;;;;;;;26.72;39.23;96917.03;5052960;28;20052;-67
2022/06/21 12:38:15;;;;;;;6.13;2.50;;;;;;;26.80;38.95;96917.16;5064952;28;20527;-66
2022/06/21 12:41:21;;;;;;;5.05;2.25;;;;;;;26.39;39.90;96901.00;5065858;28;20533;-66
2022/06/21 12:44:03;;;;;;;6.13;2.70;;;;;;;26.47;39.47;96900.75;5054687;28;20512;-66
2022/06/21 12:46:41;;;;;;;7.70;2.58;;;;;;;26.66;38.95;96868.56;5064955;28;20056;-66